Time;durP1;ratioP1;P1;durP2;ratioP2;P2;SDS_P1;SDS_P2;PMS_P1;PMS_P2;Temp;Humidity;BMP_temperature;BMP_pressure;BME280_temperature;BME280_humidity;BME280_pressure;Samples;Min_cycle;Max_cycle;Signal;HPM_P1;HPM_P2
2022/04/21 00:00:43;;;;;;;19.73;8.07;;;8.90;99.90;;;;;;5074045;28;20063;-69
2022/04/21 00:03:10;;;;;;;14.80;7.18;;;8.90;99.90;;;;;;5074147;28;20051;-69
2022/04/21 00:05:37;;;;;;;13.50;7.40;;;8.90;99.90;;;;;;5088712;28;20045;-69
2022/04/21 00:08:04;;;;;;;13.40;8.07;;;8.80;99.90;;;;;;5053968;28;20483;-69
2022/04/21 00:10:31;;;;;;;9.77;6.93;;;8.90;99.90;;;;;;5089457;28;20048;-69
2022/04/21 00:12:58;;;;;;;10.15;6.40;;;8.80;99.90;;;;;;5071848;28;20504;-69
2022/04/21 00:15:25;;;;;;;12.00;6.97;;;8.80;99.90;;;;;;5073145;28;20045;-69
2022/04/21 00:17:52;;;;;;;14.45;6.75;;;8.80;99.90;;;;;;5073319;28;20040;-69
2022/04/21 00:20:19;;;;;;;10.38;6.97;;;8.80;99.90;;;;;;5073884;28;20040;-69
2022/04/21 00:25:31;;;;;;;11.30;6.25;;;8.80;99.90;;;;;;5073762;28;20048;-69
2022/04/21 00:27:58;;;;;;;11.55;7.78;;;8.80;99.90;;;;;;5071741;28;20127;-69
2022/04/21 00:30:25;;;;;;;12.02;7.40;;;8.80;99.90;;;;;;5072336;28;20061;-69
2022/04/21 00:32:52;;;;;;;15.40;8.93;;;8.80;99.90;;;;;;5073570;28;20385;-69
2022/04/21 00:35:23;;;;;;;14.50;6.28;;;8.80;99.90;;;;;;5073183;28;20439;-69
2022/04/21 00:37:55;;;;;;;10.48;6.53;;;8.70;99.90;;;;;;5072025;28;20047;-69
2022/04/21 00:40:26;;;;;;;12.18;7.35;;;8.60;99.90;;;;;;5068714;28;20099;-69
2022/04/21 00:42:54;;;;;;;16.67;7.03;;;8.60;99.90;;;;;;5070075;28;20081;-69
2022/04/21 00:45:21;;;;;;;15.55;7.72;;;8.50;99.90;;;;;;5073390;28;20498;-69
2022/04/21 00:47:48;;;;;;;11.68;6.47;;;8.50;99.90;;;;;;5073697;28;20106;-69
2022/04/21 00:50:28;;;;;;;13.10;7.18;;;8.50;99.90;;;;;;5071035;28;20036;-69
2022/04/21 00:52:55;;;;;;;12.50;6.43;;;8.50;99.90;;;;;;5071711;28;20051;-69
2022/04/21 00:55:22;;;;;;;11.98;7.22;;;8.40;99.90;;;;;;5071969;28;20041;-69
2022/04/21 00:57:51;;;;;;;22.92;9.02;;;8.40;99.90;;;;;;5073824;28;20049;-70
2022/04/21 01:00:18;;;;;;;12.95;7.32;;;8.40;99.90;;;;;;5055167;28;20384;-70
2022/04/21 01:02:50;;;;;;;10.57;6.40;;;8.30;99.90;;;;;;5073377;28;20052;-70
2022/04/21 01:05:25;;;;;;;17.67;7.70;;;8.30;99.90;;;;;;5071962;28;20102;-70
2022/04/21 01:08:10;;;;;;;14.90;8.00;;;8.20;99.90;;;;;;5073679;28;20048;-70
2022/04/21 01:10:38;;;;;;;14.30;6.53;;;8.20;99.90;;;;;;5066672;28;21263;-69
2022/04/21 01:13:06;;;;;;;13.13;7.10;;;8.20;99.90;;;;;;5073512;28;20047;-70
2022/04/21 01:15:35;;;;;;;12.75;7.65;;;8.10;99.90;;;;;;5071918;28;20045;-69
2022/04/21 01:18:03;;;;;;;16.48;7.43;;;8.10;99.90;;;;;;5072353;28;20044;-70
2022/04/21 01:20:30;;;;;;;9.40;6.30;;;8.00;99.90;;;;;;5072968;28;20040;-70
2022/04/21 01:22:57;;;;;;;15.13;8.00;;;8.00;99.90;;;;;;5073179;28;20063;-70
2022/04/21 01:25:24;;;;;;;13.55;7.75;;;7.90;99.90;;;;;;5071490;28;20101;-70
2022/04/21 01:27:56;;;;;;;16.05;6.55;;;7.80;99.90;;;;;;5073181;28;20486;-69
2022/04/21 01:30:23;;;;;;;12.95;7.63;;;7.70;99.90;;;;;;5071556;28;20052;-70
2022/04/21 01:32:51;;;;;;;10.95;6.70;;;7.70;99.90;;;;;;5072972;28;20056;-69
2022/04/21 01:35:18;;;;;;;13.20;7.80;;;7.70;99.90;;;;;;5073308;28;20130;-69
2022/04/21 01:43:16;;;;;;;11.68;6.65;;;7.70;99.90;;;;;;5071382;28;20048;-69
2022/04/21 01:45:43;;;;;;;12.98;6.95;;;7.60;99.90;;;;;;5072242;28;20048;-69
2022/04/21 01:48:10;;;;;;;13.80;6.97;;;7.60;99.90;;;;;;5072229;28;20040;-69
2022/04/21 01:50:37;;;;;;;14.98;7.43;;;7.60;99.90;;;;;;5072527;28;20045;-69
2022/04/21 01:53:04;;;;;;;11.35;7.57;;;7.60;99.90;;;;;;5071129;28;20479;-69
2022/04/21 01:55:31;;;;;;;12.75;7.28;;;7.50;99.90;;;;;;5070983;28;20514;-69
2022/04/21 01:57:58;;;;;;;11.85;7.05;;;7.50;99.90;;;;;;5071302;28;20075;-69
2022/04/21 02:00:25;;;;;;;16.30;7.75;;;7.40;99.90;;;;;;5071171;28;20055;-69
2022/04/21 02:02:52;;;;;;;14.48;7.40;;;7.40;99.90;;;;;;5070206;28;20055;-69
2022/04/21 02:05:19;;;;;;;15.05;7.53;;;7.40;99.90;;;;;;5070580;28;20132;-69
2022/04/21 02:07:46;;;;;;;11.35;7.05;;;7.30;99.90;;;;;;5071451;28;20051;-69
2022/04/21 02:10:14;;;;;;;15.68;7.68;;;7.30;99.90;;;;;;5053749;28;20044;-68
2022/04/21 02:12:41;;;;;;;18.70;8.85;;;7.30;99.90;;;;;;5072103;28;20094;-69
2022/04/21 02:15:08;;;;;;;12.60;7.03;;;7.20;99.90;;;;;;5070577;28;20094;-68
2022/04/21 02:17:36;;;;;;;19.75;8.48;;;7.20;99.90;;;;;;5087715;28;20502;-68
2022/04/21 02:20:05;;;;;;;14.77;7.65;;;7.20;99.90;;;;;;5070219;28;20067;-68
2022/04/21 02:22:32;;;;;;;17.42;7.65;;;7.20;99.90;;;;;;5070369;28;20048;-69
2022/04/21 02:24:59;;;;;;;15.57;7.20;;;7.20;99.90;;;;;;5069709;28;20505;-69
2022/04/21 02:27:26;;;;;;;14.68;7.57;;;7.10;99.90;;;;;;5071642;28;20476;-69
2022/04/21 02:29:53;;;;;;;14.60;8.52;;;7.10;99.90;;;;;;5069936;28;20048;-69
2022/04/21 02:32:20;;;;;;;15.45;8.35;;;7.10;99.90;;;;;;5071523;28;20053;-69
2022/04/21 02:34:47;;;;;;;16.10;8.10;;;7.10;99.90;;;;;;5070693;28;20828;-69
2022/04/21 02:37:14;;;;;;;12.80;7.93;;;7.20;99.90;;;;;;5076326;28;20051;-69
2022/04/21 02:39:41;;;;;;;15.82;7.72;;;7.10;99.90;;;;;;5071643;28;20203;-69
2022/04/21 02:42:09;;;;;;;15.65;8.43;;;7.10;99.90;;;;;;5070198;28;20059;-69
2022/04/21 02:44:38;;;;;;;22.25;8.80;;;7.10;99.90;;;;;;5071419;28;20048;-69
2022/04/21 02:47:06;;;;;;;17.70;8.98;;;7.00;99.90;;;;;;5065053;28;20132;-68
2022/04/21 02:49:37;;;;;;;13.85;7.78;;;7.00;99.90;;;;;;5071122;28;20041;-68
2022/04/21 02:52:08;;;;;;;14.02;7.50;;;7.00;99.90;;;;;;5069298;28;20422;-69
2022/04/21 02:57:20;;;;;;;12.57;7.93;;;6.90;99.90;;;;;;5070224;28;20090;-69
2022/04/21 02:59:54;;;;;;;16.85;8.25;;;6.90;99.90;;;;;;5069406;28;20056;-69
2022/04/21 03:02:21;;;;;;;18.80;8.80;;;6.90;99.90;;;;;;5071123;28;20040;-69
2022/04/21 03:04:49;;;;;;;14.95;8.15;;;6.90;99.90;;;;;;5070239;28;20218;-69
2022/04/21 03:07:17;;;;;;;16.08;8.80;;;6.80;99.90;;;;;;5069947;28;20074;-69
2022/04/21 03:09:44;;;;;;;15.65;8.23;;;6.80;99.90;;;;;;5070019;28;20097;-69
2022/04/21 03:12:11;;;;;;;14.70;8.35;;;6.80;99.90;;;;;;5069745;28;20064;-69
2022/04/21 03:14:39;;;;;;;16.90;8.55;;;6.80;99.90;;;;;;5069219;28;20049;-69
2022/04/21 03:17:06;;;;;;;16.15;8.90;;;6.80;99.90;;;;;;5070089;28;20051;-69
2022/04/21 03:19:33;;;;;;;14.30;7.22;;;6.80;99.90;;;;;;5069913;28;20074;-69
2022/04/21 03:24:47;;;;;;;18.75;10.10;;;6.70;99.90;;;;;;5069618;28;20049;-69
2022/04/21 03:27:13;;;;;;;19.77;13.75;;;6.80;99.90;;;;;;5069116;28;20044;-68
2022/04/21 03:29:40;;;;;;;13.80;9.57;;;6.70;99.90;;;;;;5060757;28;20052;-68
2022/04/21 03:32:09;;;;;;;32.40;20.88;;;6.70;99.90;;;;;;5068524;28;20052;-68
2022/04/21 03:34:40;;;;;;;23.83;13.05;;;6.60;99.90;;;;;;5070765;28;20051;-67
2022/04/21 03:37:13;;;;;;;17.35;10.40;;;6.60;99.90;;;;;;5066478;28;20505;-68
2022/04/21 03:39:43;;;;;;;14.23;8.65;;;6.50;99.90;;;;;;5069616;28;20041;-68
2022/04/21 03:42:19;;;;;;;16.55;8.57;;;6.50;99.90;;;;;;5070308;28;20053;-67
2022/04/21 03:44:46;;;;;;;13.52;8.05;;;6.50;99.90;;;;;;5072455;28;20052;-68
2022/04/21 03:47:13;;;;;;;13.27;8.48;;;6.50;99.90;;;;;;5069446;28;20047;-68
2022/04/21 03:49:40;;;;;;;14.50;8.38;;;6.40;99.90;;;;;;5069844;28;20407;-68
2022/04/21 03:52:07;;;;;;;17.48;9.15;;;6.50;99.90;;;;;;5069423;28;20040;-68
2022/04/21 03:54:33;;;;;;;14.05;8.82;;;6.40;99.90;;;;;;5069978;28;20056;-68
2022/04/21 03:57:00;;;;;;;14.25;8.52;;;6.40;99.90;;;;;;5068397;28;20051;-68
2022/04/21 03:59:27;;;;;;;13.43;8.10;;;6.40;99.90;;;;;;5070419;28;20065;-68
2022/04/21 04:01:56;;;;;;;16.73;8.00;;;6.30;99.90;;;;;;5053473;28;20098;-68
2022/04/21 04:04:23;;;;;;;12.38;8.93;;;6.30;99.90;;;;;;5073640;28;20496;-68
2022/04/21 04:12:22;;;;;;;15.70;8.90;;;6.20;99.90;;;;;;5067121;28;20040;-68
2022/04/21 04:14:49;;;;;;;14.70;7.65;;;6.20;99.90;;;;;;5073025;28;20052;-68
2022/04/21 04:17:16;;;;;;;13.50;7.75;;;6.10;99.90;;;;;;5074107;28;20048;-67
2022/04/21 04:19:43;;;;;;;14.88;8.20;;;6.10;99.90;;;;;;5074603;28;20456;-68
2022/04/21 04:22:10;;;;;;;12.80;7.75;;;6.00;99.90;;;;;;5073778;28;20044;-68
2022/04/21 04:24:37;;;;;;;16.55;8.77;;;6.00;99.90;;;;;;5073024;28;20061;-68
2022/04/21 04:27:03;;;;;;;14.20;8.25;;;6.00;99.90;;;;;;5072061;28;20143;-68
2022/04/21 04:29:30;;;;;;;22.10;10.48;;;6.00;99.90;;;;;;5072314;28;20090;-68
2022/04/21 04:32:00;;;;;;;14.93;9.07;;;5.90;99.90;;;;;;5073968;28;20059;-68
2022/04/21 04:34:27;;;;;;;14.35;8.85;;;5.90;99.90;;;;;;5073813;28;20131;-68
2022/04/21 04:36:54;;;;;;;15.15;8.38;;;5.90;99.90;;;;;;5071730;28;20072;-68
2022/04/21 04:39:21;;;;;;;15.38;9.30;;;5.80;99.90;;;;;;5073174;28;20044;-68
2022/04/21 04:44:34;;;;;;;13.75;8.77;;;5.80;99.90;;;;;;5073768;28;20059;-68
2022/04/21 04:47:01;;;;;;;13.73;8.85;;;5.80;99.90;;;;;;5072609;28;20056;-68
2022/04/21 04:49:28;;;;;;;12.90;8.82;;;5.80;99.90;;;;;;5071982;28;20044;-68
2022/04/21 04:51:55;;;;;;;16.52;8.90;;;5.70;99.90;;;;;;5072817;28;20040;-68
2022/04/21 04:54:22;;;;;;;14.60;8.93;;;5.70;99.90;;;;;;5072694;28;20093;-68
2022/04/21 04:56:49;;;;;;;15.15;9.55;;;5.70;99.90;;;;;;5071666;28;20049;-68
2022/04/21 04:59:16;;;;;;;16.05;9.20;;;5.70;99.90;;;;;;5073219;28;20106;-68
2022/04/21 05:01:45;;;;;;;15.35;8.93;;;5.70;99.90;;;;;;5071885;28;20124;-68
2022/04/21 05:04:19;;;;;;;15.45;8.75;;;5.70;99.90;;;;;;5070444;28;20127;-68
2022/04/21 05:06:47;;;;;;;14.40;9.43;;;5.70;99.90;;;;;;5072770;28;20051;-67
2022/04/21 05:09:19;;;;;;;16.65;9.60;;;5.70;99.90;;;;;;5072570;28;20063;-67
2022/04/21 05:11:48;;;;;;;16.35;9.70;;;5.70;99.90;;;;;;5085489;28;20514;-68
2022/04/21 05:14:15;;;;;;;14.43;10.00;;;5.70;99.90;;;;;;5071207;28;20040;-68
2022/04/21 05:16:42;;;;;;;18.55;9.68;;;5.70;99.90;;;;;;5072742;28;20052;-68
2022/04/21 05:19:10;;;;;;;17.52;8.80;;;5.70;99.90;;;;;;5071467;28;20143;-68
2022/04/21 05:21:37;;;;;;;16.23;9.18;;;5.80;99.90;;;;;;5073402;28;20071;-69
2022/04/21 05:24:05;;;;;;;18.90;9.95;;;5.80;99.90;;;;;;5070390;28;20052;-68
2022/04/21 05:26:32;;;;;;;21.63;10.82;;;5.80;99.90;;;;;;5071624;28;20048;-68
2022/04/21 05:29:00;;;;;;;17.25;11.23;;;5.80;99.90;;;;;;5071753;28;20117;-68
2022/04/21 05:31:27;;;;;;;19.30;9.40;;;5.90;99.90;;;;;;5071765;28;20056;-68
2022/04/21 05:33:55;;;;;;;21.02;9.90;;;5.90;99.90;;;;;;5072133;28;20049;-68
2022/04/21 05:36:22;;;;;;;15.48;9.32;;;6.00;99.90;;;;;;5071400;28;20045;-67
2022/04/21 05:38:49;;;;;;;14.60;9.35;;;6.00;99.90;;;;;;5070794;28;20072;-67
2022/04/21 05:41:18;;;;;;;15.70;10.68;;;6.10;99.90;;;;;;5072507;28;20047;-68
2022/04/21 05:43:47;;;;;;;23.98;10.60;;;6.10;99.90;;;;;;5070676;28;20471;-67
2022/04/21 05:46:15;;;;;;;18.57;10.90;;;6.20;99.90;;;;;;5071126;28;20094;-72
2022/04/21 05:48:42;;;;;;;18.38;11.63;;;6.30;99.90;;;;;;5071939;28;20052;-67
2022/04/21 05:51:10;;;;;;;54.35;36.78;;;6.40;99.90;;;;;;5073998;28;20040;-68
2022/04/21 05:53:38;;;;;;;61.67;42.28;;;6.40;99.90;;;;;;5058196;28;20060;-68
2022/04/21 05:56:06;;;;;;;38.60;27.67;;;6.50;99.90;;;;;;5062623;28;20041;-77
2022/04/21 05:58:33;;;;;;;28.80;17.30;;;6.60;99.90;;;;;;5071249;28;20067;-75
2022/04/21 06:01:00;;;;;;;19.50;13.85;;;6.60;99.90;;;;;;5071111;28;20139;-75
2022/04/21 06:03:30;;;;;;;;;;;6.70;99.90;;;;;;5072664;28;20486;-74
2022/04/21 06:05:57;;;;;;;21.13;12.25;;;6.80;99.90;;;;;;5072311;28;19946;-71
2022/04/21 06:08:24;;;;;;;28.48;17.05;;;6.90;99.90;;;;;;5071268;28;20071;-69
2022/04/21 06:10:51;;;;;;;144.48;96.88;;;7.00;99.90;;;;;;5069023;28;20044;-69
2022/04/21 06:13:18;;;;;;;39.30;25.63;;;7.10;99.90;;;;;;5071224;28;20457;-70
2022/04/21 06:15:45;;;;;;;23.58;15.82;;;7.10;99.90;;;;;;5071638;28;20231;-73
2022/04/21 06:18:12;;;;;;;24.05;15.60;;;7.20;99.90;;;;;;5070268;28;20059;-61
2022/04/21 06:20:40;;;;;;;25.80;14.20;;;7.30;99.90;;;;;;5071662;28;20044;-68
2022/04/21 06:23:07;;;;;;;21.10;14.98;;;7.40;99.90;;;;;;5069731;28;20483;-68
2022/04/21 06:25:40;;;;;;;24.08;13.55;;;7.50;99.90;;;;;;5069368;28;20040;-69
2022/04/21 06:28:07;;;;;;;21.77;15.20;;;7.60;99.90;;;;;;5071805;28;20041;-67
2022/04/21 06:30:34;;;;;;;25.92;15.77;;;7.70;99.90;;;;;;5070162;28;20049;-68
2022/04/21 06:33:01;;;;;;;31.60;16.25;;;7.80;99.90;;;;;;5071545;28;20040;-68
2022/04/21 06:35:28;;;;;;;27.77;15.68;;;7.90;99.90;;;;;;5053725;28;20052;-69
2022/04/21 06:37:55;;;;;;;29.23;15.70;;;8.00;99.90;;;;;;5072028;28;20402;-69
2022/04/21 06:40:23;;;;;;;24.15;15.60;;;8.10;99.90;;;;;;5063791;28;20040;-69
2022/04/21 06:42:50;;;;;;;23.80;15.15;;;8.20;99.90;;;;;;5070030;28;20056;-69
2022/04/21 06:48:03;;;;;;;25.73;16.83;;;8.30;99.90;;;;;;5071189;28;20040;-67
2022/04/21 06:50:33;;;;;;;24.42;14.73;;;8.50;99.90;;;;;;5071544;28;20450;-72
2022/04/21 06:53:01;;;;;;;74.68;52.97;;;8.60;99.90;;;;;;5073649;28;20049;-70
2022/04/21 06:55:28;;;;;;;49.42;33.33;;;8.70;99.90;;;;;;5077901;28;20056;-67
2022/04/21 06:57:55;;;;;;;28.70;21.63;;;8.90;99.90;;;;;;5073945;28;20041;-61
2022/04/21 07:00:24;;;;;;;33.22;21.92;;;9.00;99.90;;;;;;5070916;28;20044;-71
2022/04/21 07:02:55;;;;;;;32.22;21.75;;;9.10;99.90;;;;;;5070912;28;20449;-72
2022/04/21 07:05:23;;;;;;;33.83;23.48;;;9.30;99.90;;;;;;5074237;28;20869;-69
2022/04/21 07:07:50;;;;;;;37.08;23.98;;;9.40;99.90;;;;;;5074101;28;20063;-70
2022/04/21 07:10:21;;;;;;;42.85;29.70;;;9.60;99.90;;;;;;5073636;28;20055;-69
2022/04/21 07:12:47;;;;;;;39.05;30.90;;;9.70;99.90;;;;;;5076759;28;20048;-75
2022/04/21 07:15:14;;;;;;;42.90;29.80;;;9.80;99.90;;;;;;5072557;28;20052;-75
2022/04/21 07:17:42;;;;;;;38.75;30.02;;;9.90;99.90;;;;;;5081936;28;20055;-69
2022/04/21 07:20:10;;;;;;;39.15;30.20;;;10.10;99.90;;;;;;5080864;28;20068;-68
2022/04/21 07:22:37;;;;;;;38.17;29.33;;;10.20;99.90;;;;;;5073076;28;20492;-80
2022/04/21 07:25:08;;;;;;;46.08;31.90;;;10.30;99.90;;;;;;5051762;28;20053;-73
2022/04/21 07:27:36;;;;;;;40.22;29.48;;;10.50;99.90;;;;;;5071489;28;20059;-67
2022/04/21 07:30:04;;;;;;;43.65;30.65;;;10.60;99.90;;;;;;5071171;28;20048;-78
2022/04/21 07:32:31;;;;;;;242.68;180.52;;;10.70;99.90;;;;;;5067962;28;20045;-71
2022/04/21 07:34:59;;;;;;;53.45;39.42;;;10.80;99.90;;;;;;5069319;28;20097;-70
2022/04/21 07:37:27;;;;;;;47.22;32.15;;;10.90;99.90;;;;;;5072177;28;20442;-72
2022/04/21 07:39:54;;;;;;;39.92;30.30;;;11.10;99.90;;;;;;5075280;28;20538;-71
2022/04/21 07:42:22;;;;;;;39.45;28.30;;;11.20;99.90;;;;;;5074599;28;20048;-65
2022/04/21 07:44:49;;;;;;;40.63;28.13;;;11.30;99.90;;;;;;5075172;28;20076;-65
2022/04/21 07:47:17;;;;;;;40.65;27.27;;;11.40;99.90;;;;;;5074569;28;20049;-66
2022/04/21 07:49:47;;;;;;;36.25;26.73;;;11.40;99.90;;;;;;5073628;28;20057;-67
2022/04/21 07:55:19;;;;;;;34.75;25.75;;;11.60;99.90;;;;;;5086316;28;20475;-65
2022/04/21 07:57:47;;;;;;;41.28;29.30;;;11.70;99.90;;;;;;5074785;28;20041;-64
2022/04/21 08:00:16;;;;;;;41.60;25.70;;;11.70;99.90;;;;;;5073101;28;20036;-66
2022/04/21 08:02:43;;;;;;;37.90;26.98;;;11.90;99.90;;;;;;5073017;28;20054;-65
2022/04/21 08:05:12;;;;;;;40.42;25.67;;;12.00;99.90;;;;;;5073774;28;20048;-66
2022/04/21 08:07:39;;;;;;;30.98;23.27;;;12.10;99.90;;;;;;5074352;28;20048;-66
2022/04/21 08:10:09;;;;;;;41.45;33.45;;;12.30;99.90;;;;;;5056463;28;20044;-66
2022/04/21 08:12:46;;;;;;;33.45;23.38;;;12.40;99.90;;;;;;5073384;28;20102;-66
2022/04/21 08:15:23;;;;;;;30.15;21.80;;;12.60;99.90;;;;;;5072864;28;20043;-66
2022/04/21 08:17:54;;;;;;;31.67;22.90;;;12.70;99.90;;;;;;5056595;28;20852;-72
2022/04/21 08:20:23;;;;;;;32.47;21.45;;;12.80;99.90;;;;;;5073945;28;20048;-76
2022/04/21 08:22:51;;;;;;;30.75;22.13;;;12.90;99.90;;;;;;5073550;28;20450;-76
2022/04/21 08:34:17;;;;;;;36.45;21.02;;;12.90;99.90;;;;;;5072417;28;20076;-75
2022/04/21 08:36:51;;;;;;;28.02;20.02;;;13.10;99.90;;;;;;5081688;28;20055;-76
2022/04/21 08:39:19;;;;;;;27.00;19.02;;;13.30;99.90;;;;;;5093055;28;20048;-75
2022/04/21 08:41:52;;;;;;;27.83;19.13;;;13.40;99.90;;;;;;5093356;28;20043;-76
2022/04/21 08:44:20;;;;;;;22.83;18.10;;;13.40;99.90;;;;;;5094564;28;20063;-76
2022/04/21 08:46:48;;;;;;;31.48;18.60;;;13.50;99.90;;;;;;5093364;28;20079;-76
2022/04/21 08:49:18;;;;;;;28.88;18.27;;;13.60;99.90;;;;;;5076868;28;20111;-76
2022/04/21 08:51:44;;;;;;;24.60;18.02;;;13.60;99.90;;;;;;5056841;28;20052;-76
2022/04/21 08:54:12;;;;;;;24.27;16.67;;;13.70;99.90;;;;;;5074272;28;20499;-76
2022/04/21 08:56:40;;;;;;;27.02;17.80;;;13.70;99.90;;;;;;5074156;28;20106;-75
2022/04/21 08:59:07;;;;;;;23.10;16.83;;;13.80;99.90;;;;;;5072745;28;20041;-75
2022/04/21 09:01:34;;;;;;;30.80;17.90;;;13.90;99.90;;;;;;5072847;28;20502;-75
2022/04/21 09:04:01;;;;;;;24.05;15.15;;;14.00;99.90;;;;;;5072798;28;20072;-75
2022/04/21 09:06:29;;;;;;;20.52;15.07;;;14.10;99.90;;;;;;5074455;28;20044;-75
2022/04/21 09:09:17;;;;;;;22.70;14.70;;;14.10;99.60;;;;;;5072889;28;20087;-76
2022/04/21 09:11:44;;;;;;;23.92;15.50;;;14.20;99.90;;;;;;5054127;28;20381;-76
2022/04/21 09:14:15;;;;;;;20.65;14.90;;;14.20;99.90;;;;;;5052542;28;20508;-76
2022/04/21 09:16:42;;;;;;;19.95;14.68;;;14.40;99.90;;;;;;5052862;28;20089;-77
2022/04/21 09:19:15;;;;;;;20.58;14.27;;;14.50;99.90;;;;;;5052625;28;20045;-77
2022/04/21 09:21:42;;;;;;;21.30;15.15;;;14.50;98.70;;;;;;5073240;28;20056;-75
2022/04/21 09:24:24;;;;;;;16.65;13.90;;;14.50;97.10;;;;;;5056378;28;20045;-76
2022/04/21 09:26:51;;;;;;;18.80;13.68;;;14.70;96.60;;;;;;5089391;28;20056;-75
2022/04/21 09:29:28;;;;;;;20.15;13.57;;;14.70;97.80;;;;;;5056605;28;20055;-75
2022/04/21 09:31:59;;;;;;;21.15;14.45;;;14.80;96.80;;;;;;5072628;28;20143;-75
2022/04/21 09:34:35;;;;;;;21.55;14.55;;;14.70;96.70;;;;;;5072902;28;20143;-75
2022/04/21 09:37:06;;;;;;;29.80;14.82;;;14.80;99.10;;;;;;5072506;28;20084;-76
2022/04/21 09:39:40;;;;;;;25.92;13.65;;;15.00;97.50;;;;;;5072693;28;20053;-76
2022/04/21 09:42:07;;;;;;;22.55;12.80;;;14.90;95.70;;;;;;5072400;28;20052;-75
2022/04/21 09:47:21;;;;;;;17.75;13.32;;;14.90;94.90;;;;;;5073866;28;20388;-76
2022/04/21 09:49:48;;;;;;;19.70;14.50;;;14.90;96.50;;;;;;5074987;28;20041;-76
2022/04/21 09:52:27;;;;;;;16.52;13.18;;;14.90;97.50;;;;;;5071428;28;20502;-75
2022/04/21 09:54:54;;;;;;;19.58;13.88;;;15.10;97.60;;;;;;5072443;28;20052;-76
2022/04/21 09:57:32;;;;;;;18.90;13.13;;;15.30;96.90;;;;;;5073531;28;20541;-75
2022/04/21 09:59:59;;;;;;;21.05;14.10;;;15.30;93.90;;;;;;5073111;28;20049;-75
2022/04/21 10:02:30;;;;;;;17.98;11.60;;;15.30;94.90;;;;;;5072543;28;20052;-74
2022/04/21 10:04:59;;;;;;;28.08;14.13;;;15.10;90.70;;;;;;5071817;28;20094;-75
2022/04/21 10:07:26;;;;;;;19.88;12.93;;;15.20;93.10;;;;;;5071849;28;20067;-76
2022/04/21 10:09:54;;;;;;;21.42;13.40;;;15.30;93.00;;;;;;5071524;28;20040;-77
2022/04/21 10:12:22;;;;;;;19.17;12.38;;;15.40;94.20;;;;;;5071304;28;20102;-77
2022/04/21 10:14:50;;;;;;;21.60;14.30;;;15.50;93.80;;;;;;5071681;28;20487;-76
2022/04/21 10:17:17;;;;;;;18.00;12.02;;;15.50;92.40;;;;;;5072791;28;20066;-77
2022/04/21 10:19:49;;;;;;;16.98;13.30;;;15.50;91.40;;;;;;5071678;28;20048;-76
2022/04/21 10:22:23;;;;;;;16.55;12.23;;;15.50;91.20;;;;;;5071608;28;20044;-77
2022/04/21 10:24:58;;;;;;;18.83;11.57;;;15.50;91.90;;;;;;5071837;28;20040;-76
2022/04/21 10:27:35;;;;;;;18.23;10.93;;;15.60;91.60;;;;;;5070896;28;20044;-76
2022/04/21 10:30:09;;;;;;;18.38;11.77;;;15.50;86.10;;;;;;5055292;28;20139;-76
2022/04/21 10:32:59;;;;;;;16.65;10.25;;;15.50;87.20;;;;;;5053333;28;20044;-72
2022/04/21 10:35:29;;;;;;;13.48;10.52;;;15.60;84.60;;;;;;5073028;28;20044;-71
2022/04/21 10:38:14;;;;;;;14.95;10.35;;;15.60;88.40;;;;;;5074688;28;20496;-69
2022/04/21 10:41:05;;;;;;;11.07;9.77;;;15.80;89.60;;;;;;5071065;28;20055;-72
2022/04/21 10:43:48;;;;;;;46.85;36.88;;;15.90;87.90;;;;;;5068520;28;20525;-71
2022/04/21 10:46:20;;;;;;;16.20;11.63;;;15.90;85.50;;;;;;5070821;28;20051;-65
2022/04/21 10:48:47;;;;;;;16.88;9.95;;;15.80;84.80;;;;;;5070029;28;20047;-70
2022/04/21 10:51:41;;;;;;;18.23;10.02;;;15.80;87.70;;;;;;5071914;28;20049;-67
2022/04/21 10:57:12;;;;;;;15.18;9.80;;;15.60;84.60;;;;;;5070376;28;20430;-70
2022/04/21 10:59:50;;;;;;;15.88;9.68;;;15.70;87.20;;;;;;5069037;28;20452;-71
2022/04/21 11:02:17;;;;;;;13.70;9.57;;;15.70;86.40;;;;;;5070221;28;20122;-72
2022/04/21 11:04:44;;;;;;;11.00;9.02;;;15.80;83.90;;;;;;5085543;28;20102;-68
2022/04/21 11:07:11;;;;;;;15.65;9.80;;;15.90;83.50;;;;;;5070675;28;20045;-70
2022/04/21 11:09:47;;;;;;;12.27;9.40;;;15.90;83.20;;;;;;5071354;28;20064;-71
2022/04/21 11:12:49;;;;;;;13.88;8.90;;;16.00;82.00;;;;;;5053163;28;20071;-79
2022/04/21 11:15:33;;;;;;;14.52;9.93;;;16.00;80.80;;;;;;5085598;28;20075;-74
2022/04/21 11:18:02;;;;;;;11.88;8.45;;;16.00;79.10;;;;;;5071522;28;20390;-74
2022/04/21 11:20:29;;;;;;;18.88;10.35;;;15.90;80.50;;;;;;5082116;28;20135;-75
2022/04/21 11:22:56;;;;;;;12.70;8.98;;;15.90;81.40;;;;;;5074972;28;20055;-76
2022/04/21 11:25:22;;;;;;;12.70;8.23;;;15.80;79.90;;;;;;5074905;28;20326;-75
2022/04/21 11:27:49;;;;;;;11.10;7.63;;;15.90;79.80;;;;;;5058090;28;20131;-80
2022/04/21 11:30:16;;;;;;;11.82;7.70;;;15.80;77.90;;;;;;5075482;28;20079;-72
2022/04/21 11:32:51;;;;;;;13.65;8.23;;;15.90;80.60;;;;;;5072682;28;20106;-73
2022/04/21 11:35:21;;;;;;;11.85;7.47;;;15.90;78.90;;;;;;5073171;28;20056;-70
2022/04/21 11:37:50;;;;;;;17.50;7.55;;;15.90;78.10;;;;;;5068425;28;20047;-69
2022/04/21 11:40:22;;;;;;;11.95;7.13;;;16.00;78.70;;;;;;5062142;28;20052;-69
2022/04/21 11:42:49;;;;;;;12.05;7.30;;;16.10;77.20;;;;;;5080950;28;20049;-69
2022/04/21 11:45:23;;;;;;;12.55;8.38;;;16.10;78.10;;;;;;5073583;28;20048;-71
2022/04/21 11:47:52;;;;;;;9.55;8.30;;;16.20;77.80;;;;;;5074237;28;20526;-69
2022/04/21 11:50:20;;;;;;;12.63;8.37;;;16.10;79.50;;;;;;5081106;28;20102;-70
2022/04/21 11:52:52;;;;;;;10.60;7.63;;;16.10;77.00;;;;;;5072720;28;20044;-70
2022/04/21 11:55:24;;;;;;;13.50;8.15;;;16.00;78.00;;;;;;5063779;28;20044;-69
2022/04/21 11:57:51;;;;;;;8.88;7.05;;;16.00;77.10;;;;;;5055166;28;20040;-71
2022/04/21 12:06:27;;;;;;;12.90;7.97;;;16.00;77.80;;;;;;5070319;28;20049;-74
2022/04/21 12:08:44;;;;;;;9.05;6.03;;;16.20;73.20;;;;;;5060958;28;20509;-70
2022/04/21 12:11:12;;;;;;;9.90;6.65;;;16.30;74.30;;;;;;5056835;28;20045;-70
2022/04/21 12:13:39;;;;;;;10.40;5.90;;;16.40;74.10;;;;;;5072168;28;20049;-73
2022/04/21 12:16:39;;;;;;;9.50;6.05;;;16.40;73.10;;;;;;5066278;28;20056;-69
2022/04/21 12:19:10;;;;;;;12.32;5.45;;;16.40;72.50;;;;;;5068825;28;20456;-73
2022/04/21 12:21:37;;;;;;;8.63;5.40;;;16.40;72.30;;;;;;5066073;28;20045;-70
2022/04/21 12:24:17;;;;;;;7.70;5.82;;;16.50;72.40;;;;;;5084821;28;20064;-71
2022/04/21 12:26:48;;;;;;;7.28;4.53;;;16.60;71.60;;;;;;5073367;28;20044;-65
2022/04/21 12:29:15;;;;;;;8.13;5.07;;;16.60;71.50;;;;;;5073838;28;20049;-75
2022/04/21 12:31:56;;;;;;;11.10;5.88;;;16.60;70.00;;;;;;5068912;28;20049;-79
2022/04/21 12:34:28;;;;;;;7.88;6.40;;;16.60;70.30;;;;;;5060320;28;20049;-75
2022/04/21 12:36:59;;;;;;;8.10;4.95;;;16.60;69.90;;;;;;5067177;28;20041;-69
2022/04/21 12:39:28;;;;;;;6.72;5.10;;;16.60;71.60;;;;;;5073975;28;20121;-74
2022/04/21 12:42:15;;;;;;;10.52;5.00;;;16.70;70.10;;;;;;5067494;28;20052;-72
2022/04/21 12:44:43;;;;;;;11.85;4.88;;;16.70;70.20;;;;;;5073215;28;20048;-73
2022/04/21 12:47:15;;;;;;;8.45;4.55;;;16.70;70.60;;;;;;5071838;28;20041;-81
2022/04/21 12:50:01;;;;;;;10.18;4.38;;;16.80;70.60;;;;;;5070675;28;20456;-74
2022/04/21 12:52:34;;;;;;;17.65;10.98;;;16.90;68.90;;;;;;5067537;28;20103;-78
2022/04/21 12:55:04;;;;;;;6.55;4.70;;;16.90;69.30;;;;;;5068061;28;20048;-78
2022/04/21 12:57:31;;;;;;;6.68;4.38;;;16.90;68.10;;;;;;5071197;28;20045;-73
2022/04/21 12:59:58;;;;;;;9.82;3.88;;;16.80;68.50;;;;;;5073200;28;20048;-71
2022/04/21 13:02:26;;;;;;;8.52;5.28;;;16.90;68.50;;;;;;5073769;28;20135;-72
2022/04/21 13:04:53;;;;;;;7.65;4.53;;;17.00;68.30;;;;;;5063112;28;20060;-73
2022/04/21 13:07:27;;;;;;;10.35;4.35;;;17.00;67.20;;;;;;5054017;28;20082;-73
2022/04/21 13:09:54;;;;;;;9.90;4.55;;;17.00;69.40;;;;;;5058291;28;20048;-72
2022/04/21 13:12:21;;;;;;;6.45;4.28;;;16.90;68.60;;;;;;5072692;28;20059;-73
2022/04/21 13:14:48;;;;;;;11.60;4.40;;;17.00;67.60;;;;;;5066531;28;20070;-74
2022/04/21 13:17:15;;;;;;;5.55;3.97;;;17.00;67.80;;;;;;5066455;28;20544;-72
2022/04/21 13:19:41;;;;;;;7.65;4.78;;;17.00;67.00;;;;;;5071962;28;20491;-70
2022/04/21 13:22:08;;;;;;;8.15;4.40;;;16.90;67.90;;;;;;5062129;28;20048;-74
2022/04/21 13:24:35;;;;;;;6.75;4.55;;;16.90;67.00;;;;;;5072212;28;20052;-73
2022/04/21 13:27:02;;;;;;;6.78;4.30;;;17.00;67.20;;;;;;5071441;28;20430;-75
2022/04/21 13:29:29;;;;;;;6.82;4.55;;;17.00;66.60;;;;;;5073289;28;20075;-74
2022/04/21 13:34:43;;;;;;;5.82;4.18;;;16.80;67.30;;;;;;5070351;28;20041;-70
2022/04/21 13:37:09;;;;;;;10.57;5.63;;;16.70;66.40;;;;;;5058406;28;20045;-74
2022/04/21 13:39:38;;;;;;;5.70;3.95;;;16.70;67.20;;;;;;5070399;28;20110;-73